sensor_id;sensor_type;location;lat;lon;timestamp;pressure;altitude;pressure_sealevel;temperature;humidity
51528;BME280;37612;51.768;21.590;2023-08-30T00:03:37;98793.63;;;18.70;100.00
51528;BME280;37612;51.768;21.590;2023-08-30T00:07:38;98798.17;;;18.70;100.00
51528;BME280;37612;51.768;21.590;2023-08-30T00:11:40;98810.48;;;18.69;100.00
51528;BME280;37612;51.768;21.590;2023-08-30T00:15:41;98825.81;;;18.70;100.00
51528;BME280;37612;51.768;21.590;2023-08-30T00:19:42;98822.27;;;18.65;100.00
51528;BME280;37612;51.768;21.590;2023-08-30T00:23:43;98849.99;;;18.65;100.00
51528;BME280;37612;51.768;21.590;2023-08-30T00:27:44;98870.81;;;18.62;100.00
51528;BME280;37612;51.768;21.590;2023-08-30T00:31:45;98880.19;;;18.52;100.00
51528;BME280;37612;51.768;21.590;2023-08-30T00:35:46;98890.53;;;18.42;100.00
51528;BME280;37612;51.768;21.590;2023-08-30T00:39:47;98887.71;;;18.35;100.00
51528;BME280;37612;51.768;21.590;2023-08-30T00:43:48;98893.73;;;18.29;100.00
51528;BME280;37612;51.768;21.590;2023-08-30T00:47:49;98892.21;;;18.25;100.00
51528;BME280;37612;51.768;21.590;2023-08-30T00:51:50;98889.95;;;18.22;100.00
51528;BME280;37612;51.768;21.590;2023-08-30T00:55:52;98892.10;;;18.22;100.00
51528;BME280;37612;51.768;21.590;2023-08-30T00:59:53;98879.23;;;18.25;100.00
51528;BME280;37612;51.768;21.590;2023-08-30T01:03:55;98874.89;;;18.26;100.00
51528;BME280;37612;51.768;21.590;2023-08-30T01:07:56;98878.33;;;18.29;100.00
51528;BME280;37612;51.768;21.590;2023-08-30T01:16:07;98878.13;;;18.34;100.00
51528;BME280;37612;51.768;21.590;2023-08-30T01:20:09;98861.75;;;18.36;100.00
51528;BME280;37612;51.768;21.590;2023-08-30T01:24:22;98847.44;;;18.33;100.00
51528;BME280;37612;51.768;21.590;2023-08-30T01:28:27;98839.81;;;18.31;100.00
51528;BME280;37612;51.768;21.590;2023-08-30T01:32:29;98836.47;;;18.33;100.00
51528;BME280;37612;51.768;21.590;2023-08-30T01:36:30;98846.73;;;18.34;100.00
51528;BME280;37612;51.768;21.590;2023-08-30T01:40:33;98850.45;;;18.35;100.00
51528;BME280;37612;51.768;21.590;2023-08-30T01:44:35;98841.55;;;18.34;100.00
51528;BME280;37612;51.768;21.590;2023-08-30T01:48:38;98836.52;;;18.38;100.00
51528;BME280;37612;51.768;21.590;2023-08-30T01:52:40;98838.38;;;18.36;100.00
51528;BME280;37612;51.768;21.590;2023-08-30T01:56:42;98832.56;;;18.40;100.00
51528;BME280;37612;51.768;21.590;2023-08-30T02:00:43;98833.88;;;18.46;100.00
51528;BME280;37612;51.768;21.590;2023-08-30T02:04:44;98828.10;;;18.47;100.00
51528;BME280;37612;51.768;21.590;2023-08-30T02:09:32;98829.05;;;18.48;100.00
51528;BME280;37612;51.768;21.590;2023-08-30T02:13:06;98829.94;;;18.49;100.00
51528;BME280;37612;51.768;21.590;2023-08-30T02:17:08;98825.06;;;18.51;100.00
51528;BME280;37612;51.768;21.590;2023-08-30T02:21:09;98831.23;;;18.59;100.00
51528;BME280;37612;51.768;21.590;2023-08-30T02:25:10;98827.08;;;18.66;100.00
51528;BME280;37612;51.768;21.590;2023-08-30T02:29:11;98820.58;;;18.68;100.00
51528;BME280;37612;51.768;21.590;2023-08-30T02:33:14;98816.71;;;18.68;100.00
51528;BME280;37612;51.768;21.590;2023-08-30T02:37:14;98810.55;;;18.66;100.00
51528;BME280;37612;51.768;21.590;2023-08-30T02:41:15;98807.48;;;18.63;100.00
51528;BME280;37612;51.768;21.590;2023-08-30T02:45:16;98800.08;;;18.53;100.00
51528;BME280;37612;51.768;21.590;2023-08-30T02:49:17;98792.32;;;18.50;100.00
51528;BME280;37612;51.768;21.590;2023-08-30T02:53:18;98790.01;;;18.46;100.00
51528;BME280;37612;51.768;21.590;2023-08-30T02:57:19;98780.91;;;18.44;100.00
51528;BME280;37612;51.768;21.590;2023-08-30T03:01:20;98787.14;;;18.41;100.00
51528;BME280;37612;51.768;21.590;2023-08-30T03:05:21;98790.67;;;18.36;100.00
51528;BME280;37612;51.768;21.590;2023-08-30T03:09:22;98788.95;;;18.36;100.00
51528;BME280;37612;51.768;21.590;2023-08-30T03:13:23;98785.85;;;18.38;100.00
51528;BME280;37612;51.768;21.590;2023-08-30T03:17:24;98785.66;;;18.39;100.00
51528;BME280;37612;51.768;21.590;2023-08-30T03:21:26;98788.41;;;18.40;100.00
51528;BME280;37612;51.768;21.590;2023-08-30T03:25:30;98782.13;;;18.46;100.00
51528;BME280;37612;51.768;21.590;2023-08-30T03:29:31;98768.50;;;18.51;100.00
51528;BME280;37612;51.768;21.590;2023-08-30T03:33:32;98766.59;;;18.56;100.00
51528;BME280;37612;51.768;21.590;2023-08-30T03:37:33;98766.01;;;18.59;100.00
51528;BME280;37612;51.768;21.590;2023-08-30T03:41:34;98765.52;;;18.64;100.00
51528;BME280;37612;51.768;21.590;2023-08-30T03:45:36;98759.98;;;18.62;100.00
51528;BME280;37612;51.768;21.590;2023-08-30T03:49:37;98766.25;;;18.67;100.00
51528;BME280;37612;51.768;21.590;2023-08-30T03:53:38;98758.25;;;18.72;100.00
51528;BME280;37612;51.768;21.590;2023-08-30T03:57:39;98768.59;;;18.73;100.00
51528;BME280;37612;51.768;21.590;2023-08-30T04:01:40;98770.04;;;18.72;100.00
51528;BME280;37612;51.768;21.590;2023-08-30T04:05:41;98772.59;;;18.69;100.00
51528;BME280;37612;51.768;21.590;2023-08-30T04:09:43;98772.78;;;18.68;100.00
51528;BME280;37612;51.768;21.590;2023-08-30T04:13:44;98787.89;;;18.65;100.00
51528;BME280;37612;51.768;21.590;2023-08-30T04:17:45;98787.77;;;18.64;100.00
51528;BME280;37612;51.768;21.590;2023-08-30T04:21:46;98772.58;;;18.64;100.00
51528;BME280;37612;51.768;21.590;2023-08-30T04:25:47;98775.41;;;18.64;100.00
51528;BME280;37612;51.768;21.590;2023-08-30T04:29:48;98783.17;;;18.65;100.00
51528;BME280;37612;51.768;21.590;2023-08-30T04:33:49;98796.61;;;18.71;100.00
51528;BME280;37612;51.768;21.590;2023-08-30T04:37:50;98816.73;;;18.74;100.00
51528;BME280;37612;51.768;21.590;2023-08-30T04:41:51;98822.11;;;18.72;100.00
51528;BME280;37612;51.768;21.590;2023-08-30T04:45:53;98822.09;;;18.67;100.00
51528;BME280;37612;51.768;21.590;2023-08-30T04:49:54;98813.39;;;18.61;100.00
51528;BME280;37612;51.768;21.590;2023-08-30T04:53:55;98808.92;;;18.57;100.00
51528;BME280;37612;51.768;21.590;2023-08-30T04:57:56;98819.36;;;18.52;100.00
51528;BME280;37612;51.768;21.590;2023-08-30T05:01:57;98833.66;;;18.49;100.00
51528;BME280;37612;51.768;21.590;2023-08-30T05:05:58;98841.81;;;18.50;100.00
51528;BME280;37612;51.768;21.590;2023-08-30T05:09:59;98845.13;;;18.52;100.00
51528;BME280;37612;51.768;21.590;2023-08-30T05:14:00;98843.79;;;18.55;100.00
51528;BME280;37612;51.768;21.590;2023-08-30T05:18:01;98844.42;;;18.60;100.00
51528;BME280;37612;51.768;21.590;2023-08-30T05:22:02;98832.75;;;18.65;100.00
51528;BME280;37612;51.768;21.590;2023-08-30T05:26:04;98833.35;;;18.67;100.00
51528;BME280;37612;51.768;21.590;2023-08-30T05:30:05;98834.20;;;18.71;100.00
51528;BME280;37612;51.768;21.590;2023-08-30T05:34:06;98830.28;;;18.75;100.00
51528;BME280;37612;51.768;21.590;2023-08-30T05:38:07;98820.63;;;18.79;100.00
51528;BME280;37612;51.768;21.590;2023-08-30T05:42:08;98818.00;;;18.82;100.00
51528;BME280;37612;51.768;21.590;2023-08-30T05:46:09;98810.87;;;18.85;100.00
51528;BME280;37612;51.768;21.590;2023-08-30T05:50:15;98812.56;;;18.88;100.00
51528;BME280;37612;51.768;21.590;2023-08-30T05:54:16;98818.64;;;18.89;100.00
51528;BME280;37612;51.768;21.590;2023-08-30T05:58:17;98821.23;;;18.95;100.00
51528;BME280;37612;51.768;21.590;2023-08-30T06:02:19;98831.92;;;18.98;100.00
51528;BME280;37612;51.768;21.590;2023-08-30T06:06:20;98832.36;;;18.99;100.00
51528;BME280;37612;51.768;21.590;2023-08-30T06:10:21;98830.42;;;18.99;100.00
51528;BME280;37612;51.768;21.590;2023-08-30T06:14:22;98835.84;;;18.97;100.00
51528;BME280;37612;51.768;21.590;2023-08-30T06:18:23;98844.41;;;19.02;100.00
51528;BME280;37612;51.768;21.590;2023-08-30T06:22:24;98847.64;;;19.08;100.00
51528;BME280;37612;51.768;21.590;2023-08-30T06:26:25;98846.71;;;19.10;100.00
51528;BME280;37612;51.768;21.590;2023-08-30T06:30:26;98841.76;;;19.15;100.00
51528;BME280;37612;51.768;21.590;2023-08-30T06:34:27;98835.56;;;19.17;100.00
51528;BME280;37612;51.768;21.590;2023-08-30T06:38:28;98841.98;;;19.16;100.00
51528;BME280;37612;51.768;21.590;2023-08-30T06:42:29;98840.14;;;19.13;100.00
51528;BME280;37612;51.768;21.590;2023-08-30T06:46:30;98846.81;;;19.13;100.00
51528;BME280;37612;51.768;21.590;2023-08-30T06:50:31;98848.23;;;19.19;100.00
51528;BME280;37612;51.768;21.590;2023-08-30T06:54:34;98852.40;;;19.23;100.00
51528;BME280;37612;51.768;21.590;2023-08-30T06:58:35;98850.91;;;19.25;100.00
51528;BME280;37612;51.768;21.590;2023-08-30T07:02:37;98841.96;;;19.23;100.00
51528;BME280;37612;51.768;21.590;2023-08-30T07:06:38;98842.13;;;19.25;100.00
51528;BME280;37612;51.768;21.590;2023-08-30T07:10:39;98841.17;;;19.25;100.00
51528;BME280;37612;51.768;21.590;2023-08-30T07:14:40;98843.04;;;19.23;100.00
51528;BME280;37612;51.768;21.590;2023-08-30T07:18:41;98836.48;;;19.23;100.00
51528;BME280;37612;51.768;21.590;2023-08-30T07:22:42;98840.23;;;19.23;100.00
51528;BME280;37612;51.768;21.590;2023-08-30T07:26:43;98836.21;;;19.27;100.00
51528;BME280;37612;51.768;21.590;2023-08-30T07:30:44;98838.95;;;19.38;100.00
51528;BME280;37612;51.768;21.590;2023-08-30T07:34:45;98844.13;;;19.47;100.00
51528;BME280;37612;51.768;21.590;2023-08-30T07:38:46;98846.77;;;19.53;100.00
51528;BME280;37612;51.768;21.590;2023-08-30T07:42:47;98846.50;;;19.56;100.00
51528;BME280;37612;51.768;21.590;2023-08-30T07:46:48;98841.60;;;19.60;100.00
51528;BME280;37612;51.768;21.590;2023-08-30T07:50:49;98835.69;;;19.57;100.00
51528;BME280;37612;51.768;21.590;2023-08-30T07:54:50;98828.11;;;19.52;100.00
51528;BME280;37612;51.768;21.590;2023-08-30T07:58:51;98831.55;;;19.51;100.00
51528;BME280;37612;51.768;21.590;2023-08-30T08:02:52;98823.36;;;19.50;100.00
51528;BME280;37612;51.768;21.590;2023-08-30T08:06:53;98827.95;;;19.57;100.00
51528;BME280;37612;51.768;21.590;2023-08-30T08:10:54;98820.27;;;19.60;100.00
51528;BME280;37612;51.768;21.590;2023-08-30T08:14:56;98819.41;;;19.62;100.00
51528;BME280;37612;51.768;21.590;2023-08-30T08:18:56;98820.02;;;19.69;100.00
51528;BME280;37612;51.768;21.590;2023-08-30T08:23:00;98828.52;;;19.74;100.00
51528;BME280;37612;51.768;21.590;2023-08-30T08:27:01;98830.27;;;19.75;100.00
51528;BME280;37612;51.768;21.590;2023-08-30T08:31:02;98828.58;;;19.70;100.00
51528;BME280;37612;51.768;21.590;2023-08-30T08:35:03;98824.61;;;19.65;100.00
51528;BME280;37612;51.768;21.590;2023-08-30T08:39:04;98825.09;;;19.61;100.00
51528;BME280;37612;51.768;21.590;2023-08-30T08:43:06;98823.09;;;19.56;100.00
51528;BME280;37612;51.768;21.590;2023-08-30T08:47:07;98823.71;;;19.52;100.00
51528;BME280;37612;51.768;21.590;2023-08-30T08:51:08;98823.63;;;19.49;100.00
51528;BME280;37612;51.768;21.590;2023-08-30T08:55:10;98823.83;;;19.48;100.00
51528;BME280;37612;51.768;21.590;2023-08-30T08:59:11;98816.41;;;19.48;100.00
51528;BME280;37612;51.768;21.590;2023-08-30T09:03:12;98820.48;;;19.53;100.00
51528;BME280;37612;51.768;21.590;2023-08-30T09:07:13;98826.95;;;19.56;100.00
51528;BME280;37612;51.768;21.590;2023-08-30T09:11:15;98820.00;;;19.57;100.00
51528;BME280;37612;51.768;21.590;2023-08-30T09:15:17;98821.32;;;19.60;100.00
51528;BME280;37612;51.768;21.590;2023-08-30T09:19:25;98819.55;;;19.64;100.00
51528;BME280;37612;51.768;21.590;2023-08-30T09:23:58;98822.16;;;19.68;100.00
51528;BME280;37612;51.768;21.590;2023-08-30T09:28:00;98815.19;;;19.73;100.00
51528;BME280;37612;51.768;21.590;2023-08-30T09:32:08;98815.88;;;19.82;100.00
51528;BME280;37612;51.768;21.590;2023-08-30T09:36:10;98819.04;;;19.82;100.00
51528;BME280;37612;51.768;21.590;2023-08-30T09:40:12;98814.95;;;19.83;100.00
51528;BME280;37612;51.768;21.590;2023-08-30T09:44:17;98813.13;;;19.87;100.00
51528;BME280;37612;51.768;21.590;2023-08-30T09:48:27;98813.60;;;19.92;100.00
51528;BME280;37612;51.768;21.590;2023-08-30T09:52:29;98804.65;;;19.96;100.00
51528;BME280;37612;51.768;21.590;2023-08-30T09:56:31;98804.76;;;19.93;100.00
51528;BME280;37612;51.768;21.590;2023-08-30T10:00:33;98817.83;;;19.86;100.00
51528;BME280;37612;51.768;21.590;2023-08-30T10:04:39;98819.39;;;19.88;100.00
51528;BME280;37612;51.768;21.590;2023-08-30T10:08:41;98821.60;;;20.03;100.00
51528;BME280;37612;51.768;21.590;2023-08-30T10:12:43;98825.46;;;20.13;100.00
51528;BME280;37612;51.768;21.590;2023-08-30T10:16:47;98831.23;;;20.29;100.00
51528;BME280;37612;51.768;21.590;2023-08-30T10:20:49;98829.01;;;20.40;100.00
51528;BME280;37612;51.768;21.590;2023-08-30T10:24:57;98826.88;;;20.44;100.00
51528;BME280;37612;51.768;21.590;2023-08-30T10:29:04;98833.58;;;20.34;100.00
51528;BME280;37612;51.768;21.590;2023-08-30T10:33:13;98836.10;;;20.28;100.00
51528;BME280;37612;51.768;21.590;2023-08-30T10:37:14;98842.30;;;20.12;100.00
51528;BME280;37612;51.768;21.590;2023-08-30T10:45:23;98855.52;;;19.80;100.00
51528;BME280;37612;51.768;21.590;2023-08-30T10:49:25;98862.48;;;19.68;100.00
51528;BME280;37612;51.768;21.590;2023-08-30T10:53:30;98858.67;;;19.57;100.00
51528;BME280;37612;51.768;21.590;2023-08-30T10:57:31;98858.60;;;19.45;100.00
51528;BME280;37612;51.768;21.590;2023-08-30T11:01:34;98854.98;;;19.41;100.00
51528;BME280;37612;51.768;21.590;2023-08-30T11:05:35;98860.91;;;19.35;100.00
51528;BME280;37612;51.768;21.590;2023-08-30T11:09:36;98868.23;;;19.37;100.00
51528;BME280;37612;51.768;21.590;2023-08-30T11:13:39;98866.61;;;19.34;100.00
51528;BME280;37612;51.768;21.590;2023-08-30T11:17:44;98864.21;;;19.34;100.00
51528;BME280;37612;51.768;21.590;2023-08-30T11:21:45;98862.71;;;19.31;100.00
51528;BME280;37612;51.768;21.590;2023-08-30T11:25:49;98864.14;;;19.25;100.00
51528;BME280;37612;51.768;21.590;2023-08-30T11:29:50;98868.11;;;19.08;100.00
51528;BME280;37612;51.768;21.590;2023-08-30T11:33:55;98865.02;;;18.94;100.00
51528;BME280;37612;51.768;21.590;2023-08-30T11:37:57;98868.23;;;18.89;100.00
51528;BME280;37612;51.768;21.590;2023-08-30T11:41:58;98871.10;;;18.85;100.00
51528;BME280;37612;51.768;21.590;2023-08-30T11:46:00;98870.11;;;18.85;100.00
51528;BME280;37612;51.768;21.590;2023-08-30T11:50:01;98872.56;;;18.87;100.00
51528;BME280;37612;51.768;21.590;2023-08-30T11:54:03;98878.03;;;18.80;100.00
51528;BME280;37612;51.768;21.590;2023-08-30T11:58:06;98875.52;;;18.78;100.00
51528;BME280;37612;51.768;21.590;2023-08-30T12:02:13;98873.39;;;18.77;100.00
51528;BME280;37612;51.768;21.590;2023-08-30T12:06:15;98876.48;;;18.69;100.00
51528;BME280;37612;51.768;21.590;2023-08-30T12:10:18;98878.16;;;18.63;100.00
51528;BME280;37612;51.768;21.590;2023-08-30T12:14:20;98882.24;;;18.65;100.00
51528;BME280;37612;51.768;21.590;2023-08-30T12:18:24;98889.48;;;18.68;100.00
51528;BME280;37612;51.768;21.590;2023-08-30T12:22:37;98880.25;;;18.67;100.00
51528;BME280;37612;51.768;21.590;2023-08-30T12:26:39;98874.84;;;18.73;100.00
51528;BME280;37612;51.768;21.590;2023-08-30T12:30:40;98881.81;;;18.75;100.00
51528;BME280;37612;51.768;21.590;2023-08-30T12:34:42;98885.33;;;18.76;100.00
51528;BME280;37612;51.768;21.590;2023-08-30T12:38:43;98881.31;;;18.78;100.00
51528;BME280;37612;51.768;21.590;2023-08-30T12:42:44;98882.21;;;18.74;100.00
51528;BME280;37612;51.768;21.590;2023-08-30T12:46:45;98874.05;;;18.78;100.00
51528;BME280;37612;51.768;21.590;2023-08-30T12:50:46;98874.29;;;18.87;100.00
51528;BME280;37612;51.768;21.590;2023-08-30T12:54:48;98874.64;;;18.93;100.00
51528;BME280;37612;51.768;21.590;2023-08-30T12:58:49;98880.35;;;18.97;100.00
51528;BME280;37612;51.768;21.590;2023-08-30T13:02:52;98874.49;;;19.07;100.00
51528;BME280;37612;51.768;21.590;2023-08-30T13:06:54;98866.05;;;19.14;100.00
51528;BME280;37612;51.768;21.590;2023-08-30T13:10:55;98868.94;;;19.18;100.00
51528;BME280;37612;51.768;21.590;2023-08-30T13:14:57;98869.40;;;19.21;100.00
51528;BME280;37612;51.768;21.590;2023-08-30T13:18:59;98867.55;;;19.21;100.00
51528;BME280;37612;51.768;21.590;2023-08-30T13:23:00;98863.54;;;19.17;100.00
51528;BME280;37612;51.768;21.590;2023-08-30T13:27:01;98862.87;;;19.08;100.00
51528;BME280;37612;51.768;21.590;2023-08-30T13:31:06;98858.70;;;19.06;100.00
51528;BME280;37612;51.768;21.590;2023-08-30T13:35:07;98858.42;;;19.07;100.00
51528;BME280;37612;51.768;21.590;2023-08-30T13:39:08;98862.54;;;19.00;100.00
51528;BME280;37612;51.768;21.590;2023-08-30T13:43:09;98869.22;;;18.95;100.00
51528;BME280;37612;51.768;21.590;2023-08-30T13:47:11;98870.27;;;18.92;100.00
51528;BME280;37612;51.768;21.590;2023-08-30T13:51:13;98874.36;;;18.98;100.00
51528;BME280;37612;51.768;21.590;2023-08-30T13:55:19;98873.77;;;19.08;100.00
51528;BME280;37612;51.768;21.590;2023-08-30T13:59:22;98872.95;;;19.16;100.00
51528;BME280;37612;51.768;21.590;2023-08-30T14:03:23;98871.70;;;19.22;100.00
51528;BME280;37612;51.768;21.590;2023-08-30T14:07:28;98867.94;;;19.16;100.00
51528;BME280;37612;51.768;21.590;2023-08-30T14:11:38;98875.34;;;19.11;100.00
51528;BME280;37612;51.768;21.590;2023-08-30T14:15:45;98886.08;;;19.14;100.00
51528;BME280;37612;51.768;21.590;2023-08-30T14:19:51;98892.68;;;19.21;100.00
51528;BME280;37612;51.768;21.590;2023-08-30T14:23:54;98894.38;;;19.23;100.00
51528;BME280;37612;51.768;21.590;2023-08-30T14:27:55;98898.95;;;19.21;100.00
51528;BME280;37612;51.768;21.590;2023-08-30T14:32:02;98897.15;;;19.18;100.00
51528;BME280;37612;51.768;21.590;2023-08-30T14:36:08;98904.41;;;19.11;100.00
51528;BME280;37612;51.768;21.590;2023-08-30T14:40:10;98905.53;;;18.99;100.00
51528;BME280;37612;51.768;21.590;2023-08-30T14:44:11;98917.17;;;19.00;100.00
51528;BME280;37612;51.768;21.590;2023-08-30T14:48:13;98927.79;;;19.01;100.00
51528;BME280;37612;51.768;21.590;2023-08-30T14:52:15;98929.43;;;19.09;100.00
51528;BME280;37612;51.768;21.590;2023-08-30T14:56:16;98928.56;;;19.11;100.00
51528;BME280;37612;51.768;21.590;2023-08-30T15:00:18;98927.25;;;19.12;100.00
51528;BME280;37612;51.768;21.590;2023-08-30T15:04:20;98924.16;;;19.15;100.00
51528;BME280;37612;51.768;21.590;2023-08-30T15:08:22;98918.08;;;19.25;100.00
51528;BME280;37612;51.768;21.590;2023-08-30T15:12:24;98916.93;;;19.30;100.00
51528;BME280;37612;51.768;21.590;2023-08-30T15:16:25;98918.54;;;19.36;100.00
51528;BME280;37612;51.768;21.590;2023-08-30T15:20:26;98923.18;;;19.43;100.00
51528;BME280;37612;51.768;21.590;2023-08-30T15:24:27;98917.42;;;19.39;100.00
51528;BME280;37612;51.768;21.590;2023-08-30T15:28:29;98912.36;;;19.29;100.00
51528;BME280;37612;51.768;21.590;2023-08-30T15:32:30;98908.39;;;19.23;100.00
51528;BME280;37612;51.768;21.590;2023-08-30T15:36:32;98909.09;;;19.29;100.00
51528;BME280;37612;51.768;21.590;2023-08-30T15:40:33;98909.15;;;19.33;100.00
51528;BME280;37612;51.768;21.590;2023-08-30T15:44:35;98913.10;;;19.28;100.00
51528;BME280;37612;51.768;21.590;2023-08-30T15:48:37;98920.94;;;19.20;100.00
51528;BME280;37612;51.768;21.590;2023-08-30T15:52:38;98929.33;;;19.14;100.00
51528;BME280;37612;51.768;21.590;2023-08-30T15:56:39;98937.27;;;19.12;100.00
51528;BME280;37612;51.768;21.590;2023-08-30T16:00:40;98943.79;;;19.02;100.00
51528;BME280;37612;51.768;21.590;2023-08-30T16:04:41;98946.61;;;18.92;100.00
51528;BME280;37612;51.768;21.590;2023-08-30T16:08:42;98942.91;;;18.82;100.00
51528;BME280;37612;51.768;21.590;2023-08-30T16:12:44;98939.65;;;18.77;100.00
51528;BME280;37612;51.768;21.590;2023-08-30T16:16:45;98941.61;;;18.70;100.00
51528;BME280;37612;51.768;21.590;2023-08-30T16:20:48;98933.85;;;18.65;100.00
51528;BME280;37612;51.768;21.590;2023-08-30T16:24:49;98928.84;;;18.61;100.00
51528;BME280;37612;51.768;21.590;2023-08-30T16:28:50;98930.19;;;18.53;100.00
51528;BME280;37612;51.768;21.590;2023-08-30T16:32:51;98925.96;;;18.48;100.00
51528;BME280;37612;51.768;21.590;2023-08-30T16:36:52;98924.15;;;18.45;100.00
51528;BME280;37612;51.768;21.590;2023-08-30T16:40:53;98915.11;;;18.47;100.00
51528;BME280;37612;51.768;21.590;2023-08-30T16:44:54;98918.04;;;18.49;100.00
51528;BME280;37612;51.768;21.590;2023-08-30T16:48:55;98917.70;;;18.50;100.00
51528;BME280;37612;51.768;21.590;2023-08-30T16:52:57;98916.48;;;18.48;100.00
51528;BME280;37612;51.768;21.590;2023-08-30T16:56:58;98911.49;;;18.45;100.00
51528;BME280;37612;51.768;21.590;2023-08-30T17:01:00;98907.69;;;18.40;100.00
51528;BME280;37612;51.768;21.590;2023-08-30T17:05:02;98903.70;;;18.37;100.00
51528;BME280;37612;51.768;21.590;2023-08-30T17:09:07;98905.39;;;18.32;100.00
51528;BME280;37612;51.768;21.590;2023-08-30T17:13:11;98903.57;;;18.29;100.00
51528;BME280;37612;51.768;21.590;2023-08-30T17:17:13;98896.13;;;18.24;100.00
51528;BME280;37612;51.768;21.590;2023-08-30T17:21:16;98902.98;;;18.24;100.00
51528;BME280;37612;51.768;21.590;2023-08-30T17:25:18;98912.38;;;18.22;100.00
51528;BME280;37612;51.768;21.590;2023-08-30T17:29:21;98909.47;;;18.20;100.00
51528;BME280;37612;51.768;21.590;2023-08-30T17:33:23;98907.41;;;18.19;100.00
51528;BME280;37612;51.768;21.590;2023-08-30T17:37:35;98909.56;;;18.19;100.00
51528;BME280;37612;51.768;21.590;2023-08-30T17:41:49;98906.55;;;18.19;100.00
51528;BME280;37612;51.768;21.590;2023-08-30T17:45:59;98903.27;;;18.17;100.00
51528;BME280;37612;51.768;21.590;2023-08-30T17:50:08;98905.58;;;18.17;100.00
51528;BME280;37612;51.768;21.590;2023-08-30T17:54:09;98909.04;;;18.17;100.00
51528;BME280;37612;51.768;21.590;2023-08-30T17:58:10;98911.45;;;18.13;100.00
51528;BME280;37612;51.768;21.590;2023-08-30T18:02:11;98922.07;;;18.10;100.00
51528;BME280;37612;51.768;21.590;2023-08-30T18:06:12;98923.60;;;18.06;100.00
51528;BME280;37612;51.768;21.590;2023-08-30T18:10:15;98917.10;;;18.03;100.00
51528;BME280;37612;51.768;21.590;2023-08-30T18:14:16;98911.30;;;17.99;100.00
51528;BME280;37612;51.768;21.590;2023-08-30T18:18:17;98909.96;;;17.96;100.00
51528;BME280;37612;51.768;21.590;2023-08-30T18:22:18;98912.48;;;17.92;100.00
51528;BME280;37612;51.768;21.590;2023-08-30T18:26:19;98911.71;;;17.86;100.00
51528;BME280;37612;51.768;21.590;2023-08-30T18:30:20;98913.09;;;17.83;100.00
51528;BME280;37612;51.768;21.590;2023-08-30T18:34:21;98913.96;;;17.77;100.00
51528;BME280;37612;51.768;21.590;2023-08-30T18:38:22;98917.09;;;17.71;100.00
51528;BME280;37612;51.768;21.590;2023-08-30T18:42:23;98923.71;;;17.65;100.00
51528;BME280;37612;51.768;21.590;2023-08-30T18:46:25;98931.41;;;17.61;100.00
51528;BME280;37612;51.768;21.590;2023-08-30T19:03:58;98959.96;;;17.58;100.00
51528;BME280;37612;51.768;21.590;2023-08-30T19:08:10;98968.67;;;17.56;100.00
51528;BME280;37612;51.768;21.590;2023-08-30T19:12:26;98974.58;;;17.55;100.00
51528;BME280;37612;51.768;21.590;2023-08-30T19:16:37;98978.46;;;17.54;100.00
51528;BME280;37612;51.768;21.590;2023-08-30T19:20:54;98979.69;;;17.54;100.00
51528;BME280;37612;51.768;21.590;2023-08-30T19:25:05;98977.81;;;17.57;100.00
51528;BME280;37612;51.768;21.590;2023-08-30T19:29:13;98977.15;;;17.56;100.00
51528;BME280;37612;51.768;21.590;2023-08-30T19:33:15;98986.00;;;17.50;100.00
51528;BME280;37612;51.768;21.590;2023-08-30T19:37:16;98989.42;;;17.49;100.00
51528;BME280;37612;51.768;21.590;2023-08-30T19:41:23;98992.75;;;17.48;100.00
51528;BME280;37612;51.768;21.590;2023-08-30T19:45:24;98995.98;;;17.48;100.00
51528;BME280;37612;51.768;21.590;2023-08-30T19:49:26;99003.88;;;17.44;100.00
51528;BME280;37612;51.768;21.590;2023-08-30T19:53:27;99012.61;;;17.44;100.00
51528;BME280;37612;51.768;21.590;2023-08-30T19:57:29;99012.66;;;17.39;100.00
51528;BME280;37612;51.768;21.590;2023-08-30T20:01:32;99010.28;;;17.32;100.00
51528;BME280;37612;51.768;21.590;2023-08-30T20:05:35;99009.64;;;17.26;100.00
51528;BME280;37612;51.768;21.590;2023-08-30T20:09:36;99017.00;;;17.20;100.00
51528;BME280;37612;51.768;21.590;2023-08-30T20:13:38;99026.98;;;17.17;100.00
51528;BME280;37612;51.768;21.590;2023-08-30T20:17:39;99035.25;;;17.14;100.00
51528;BME280;37612;51.768;21.590;2023-08-30T20:21:41;99036.77;;;17.16;100.00
51528;BME280;37612;51.768;21.590;2023-08-30T20:25:43;99041.59;;;17.15;100.00
51528;BME280;37612;51.768;21.590;2023-08-30T20:29:44;99046.38;;;17.12;100.00
51528;BME280;37612;51.768;21.590;2023-08-30T20:33:45;99043.09;;;17.09;100.00
51528;BME280;37612;51.768;21.590;2023-08-30T20:37:49;99038.80;;;17.06;100.00
51528;BME280;37612;51.768;21.590;2023-08-30T20:41:52;99044.16;;;17.00;100.00
51528;BME280;37612;51.768;21.590;2023-08-30T20:45:55;99044.94;;;16.95;100.00
51528;BME280;37612;51.768;21.590;2023-08-30T20:49:56;99051.23;;;16.88;100.00
51528;BME280;37612;51.768;21.590;2023-08-30T20:53:57;99049.96;;;16.86;100.00
51528;BME280;37612;51.768;21.590;2023-08-30T20:58:01;99044.69;;;16.84;100.00
51528;BME280;37612;51.768;21.590;2023-08-30T21:02:02;99036.98;;;16.84;100.00
51528;BME280;37612;51.768;21.590;2023-08-30T21:06:08;99045.74;;;16.84;100.00
51528;BME280;37612;51.768;21.590;2023-08-30T21:10:12;99049.39;;;16.80;100.00
51528;BME280;37612;51.768;21.590;2023-08-30T21:14:13;99049.65;;;16.78;100.00